Time;durP1;ratioP1;P1;durP2;ratioP2;P2;SDS_P1;SDS_P2;PMS_P1;PMS_P2;Temp;Humidity;BMP_temperature;BMP_pressure;BME280_temperature;BME280_humidity;BME280_pressure;Samples;Min_cycle;Max_cycle;Signal;HPM_P1;HPM_P2
2023/01/21 00:02:08;;;;;;;123.22;29.98;;;;;;;-4.36;100.00;102804.22;5113508;28;20083;-82
2023/01/21 00:04:36;;;;;;;134.73;30.98;;;;;;;-4.37;100.00;102807.69;5113450;28;20042;-80
2023/01/21 00:07:02;;;;;;;153.30;33.30;;;;;;;-4.39;100.00;102807.66;5113420;28;20031;-82
2023/01/21 00:09:28;;;;;;;122.22;30.23;;;;;;;-4.41;100.00;102808.56;5112843;28;20524;-80
2023/01/21 00:11:53;;;;;;;133.25;32.05;;;;;;;-4.39;100.00;102815.47;5113475;28;20035;-80
2023/01/21 00:14:19;;;;;;;140.02;33.05;;;;;;;-4.38;100.00;102814.63;5113595;28;20024;-80
2023/01/21 00:16:44;;;;;;;149.27;32.60;;;;;;;-4.34;100.00;102816.38;5113733;28;20066;-80
2023/01/21 00:19:09;;;;;;;159.50;35.03;;;;;;;-4.32;100.00;102814.63;5113614;28;20036;-80
2023/01/21 00:21:35;;;;;;;166.35;34.97;;;;;;;-4.32;100.00;102816.38;5095014;28;20622;-81
2023/01/21 00:24:00;;;;;;;141.82;33.47;;;;;;;-4.33;100.00;102823.31;5112387;28;20035;-80
2023/01/21 00:26:25;;;;;;;146.23;33.60;;;;;;;-4.30;100.00;102831.13;5112651;28;20114;-81
2023/01/21 00:28:51;;;;;;;126.25;31.63;;;;;;;-4.30;100.00;102831.13;5113873;28;20036;-80
2023/01/21 00:31:16;;;;;;;123.57;32.05;;;;;;;-4.28;100.00;102839.78;5113132;28;20157;-80
2023/01/21 00:33:42;;;;;;;166.30;35.13;;;;;;;-4.21;100.00;102853.69;5112537;28;20066;-82
2023/01/21 00:36:10;;;;;;;172.23;36.83;;;;;;;-4.14;100.00;102859.75;5113826;28;20520;-81
2023/01/21 00:38:35;;;;;;;153.73;34.28;;;;;;;-4.13;100.00;102854.56;5112811;28;20024;-80
2023/01/21 00:41:05;;;;;;;170.10;36.13;;;;;;;-4.09;100.00;102871.03;5113233;28;20093;-81
2023/01/21 00:43:31;;;;;;;164.70;36.83;;;;;;;-4.08;100.00;102854.56;5112702;28;20429;-81
2023/01/21 00:45:57;;;;;;;174.75;37.95;;;;;;;-4.09;100.00;102864.13;5111626;28;20019;-81
2023/01/21 00:48:23;;;;;;;151.23;35.58;;;;;;;-4.11;100.00;102849.38;5112629;28;20031;-81
2023/01/21 00:50:50;;;;;;;167.73;36.70;;;;;;;-4.14;100.00;102859.75;5113103;28;20063;-81
2023/01/21 00:53:19;;;;;;;166.10;34.58;;;;;;;-4.14;100.00;102859.75;5111427;28;20099;-80
2023/01/21 00:55:44;;;;;;;165.52;36.17;;;;;;;-4.16;100.00;102859.75;5112620;28;20460;-80
2023/01/21 00:58:10;;;;;;;142.68;33.40;;;;;;;-4.20;100.00;102858.00;5111618;28;20036;-80
2023/01/21 01:00:35;;;;;;;149.40;34.40;;;;;;;-4.23;100.00;102860.59;5112676;28;20038;-80
2023/01/21 01:03:00;;;;;;;141.38;32.03;;;;;;;-4.26;100.00;102868.38;5113233;28;20101;-80
2023/01/21 01:05:26;;;;;;;142.40;35.00;;;;;;;-4.33;100.00;102869.22;5112614;28;20059;-81
2023/01/21 01:07:51;;;;;;;130.30;31.92;;;;;;;-4.41;100.00;102876.97;5111475;28;20495;-80
2023/01/21 01:10:17;;;;;;;133.18;31.17;;;;;;;-4.52;100.00;102873.44;5111559;28;20034;-80
2023/01/21 01:12:42;;;;;;;145.48;33.25;;;;;;;-4.60;100.00;102878.63;5111100;28;20071;-81
2023/01/21 01:15:09;;;;;;;129.18;30.83;;;;;;;-4.67;100.00;102882.91;5111788;28;20042;-80
2023/01/21 01:17:35;;;;;;;136.80;32.75;;;;;;;-4.70;100.00;102882.91;5112303;28;20031;-80
2023/01/21 01:20:00;;;;;;;144.05;33.92;;;;;;;-4.71;100.00;102883.75;5113121;28;20055;-80
2023/01/21 01:22:25;;;;;;;147.32;32.42;;;;;;;-4.76;100.00;102881.97;5112324;28;20084;-81
2023/01/21 01:24:51;;;;;;;134.93;32.03;;;;;;;-4.75;100.00;102883.72;5112727;28;20115;-80
2023/01/21 01:27:16;;;;;;;149.02;32.13;;;;;;;-4.75;100.00;102887.19;5112690;28;20035;-81
2023/01/21 01:29:41;;;;;;;134.43;32.95;;;;;;;-4.75;100.00;102897.56;5112399;28;20059;-80
2023/01/21 01:32:07;;;;;;;174.95;35.38;;;;;;;-4.75;100.00;102896.72;5112588;28;20460;-80
2023/01/21 01:34:32;;;;;;;156.77;34.50;;;;;;;-4.77;100.00;102901.91;5112430;28;20073;-80
2023/01/21 01:36:57;;;;;;;181.23;37.47;;;;;;;-4.66;100.00;102900.25;5113128;28;20027;-80
2023/01/21 01:39:23;;;;;;;187.38;36.92;;;;;;;-4.61;100.00;102905.47;5114922;28;20035;-81
2023/01/21 01:41:48;;;;;;;154.80;32.88;;;;;;;-4.62;100.00;102912.38;5115664;28;20046;-80
2023/01/21 01:44:53;;;;;;;175.20;33.35;;;;;;;-4.64;100.00;102910.66;5116468;28;20027;-80
2023/01/21 01:47:20;;;;;;;159.13;32.00;;;;;;;-4.69;100.00;102917.53;5114935;28;20030;-80
2023/01/21 01:49:46;;;;;;;155.43;33.70;;;;;;;-4.72;100.00;102931.38;5115742;28;20024;-80
2023/01/21 01:52:14;;;;;;;152.55;31.98;;;;;;;-4.74;100.00;102935.69;5114732;28;20081;-80
2023/01/21 01:54:45;;;;;;;162.63;33.75;;;;;;;-4.76;100.00;102944.31;5115343;28;20077;-80
2023/01/21 01:57:14;;;;;;;147.20;33.13;;;;;;;-4.80;100.00;102946.91;5115780;28;20123;-80
2023/01/21 01:59:41;;;;;;;135.05;31.58;;;;;;;-4.81;100.00;102954.69;5115534;28;20111;-80
2023/01/21 02:02:10;;;;;;;148.48;33.15;;;;;;;-4.87;100.00;102958.09;5115860;28;20031;-79
2023/01/21 02:04:44;;;;;;;134.55;30.85;;;;;;;-4.90;100.00;102965.88;5115455;28;20028;-80
2023/01/21 02:07:10;;;;;;;122.40;29.05;;;;;;;-4.93;100.00;102968.44;5115705;27;20031;-79
2023/01/21 02:09:36;;;;;;;131.02;29.48;;;;;;;-4.97;100.00;102970.16;5115228;28;20383;-79
2023/01/21 02:12:03;;;;;;;127.55;28.85;;;;;;;-4.98;100.00;102967.53;5114302;28;20106;-79
2023/01/21 02:14:31;;;;;;;123.45;29.05;;;;;;;-5.01;100.00;102964.94;5115666;28;20031;-79
2023/01/21 02:17:38;;;;;;;127.95;29.38;;;;;;;-5.00;100.00;102969.25;5115142;28;20072;-79
2023/01/21 02:20:21;;;;;;;134.95;31.00;;;;;;;-4.94;100.00;102978.81;5115897;28;20032;-79
2023/01/21 02:22:56;;;;;;;127.03;29.10;;;;;;;-4.88;100.00;102992.75;5115039;28;20039;-80
2023/01/21 02:25:43;;;;;;;129.23;27.50;;;;;;;-4.82;100.00;102997.09;5115264;28;20032;-80
2023/01/21 02:28:31;;;;;;;129.13;31.55;;;;;;;-4.74;100.00;102999.78;5115347;28;20042;-79
2023/01/21 02:31:28;;;;;;;136.20;30.35;;;;;;;-4.71;100.00;102998.06;5114920;28;20055;-79
2023/01/21 02:34:29;;;;;;;132.35;29.02;;;;;;;-4.66;100.00;103011.09;5116928;28;20310;-79
2023/01/21 02:37:05;;;;;;;116.32;27.42;;;;;;;-4.64;100.00;103014.59;5114350;28;20043;-78
2023/01/21 02:40:08;;;;;;;120.88;28.52;;;;;;;-4.56;100.00;103022.44;5131911;28;20043;-79
2023/01/21 02:42:45;;;;;;;139.85;30.95;;;;;;;-4.50;100.00;103025.94;5035100;28;20144;-79
2023/01/21 02:45:48;;;;;;;132.32;31.38;;;;;;;-4.35;100.00;103038.16;5107447;28;20036;-78
2023/01/21 02:48:38;;;;;;;144.07;30.13;;;;;;;-4.21;100.00;103032.19;5073822;28;20043;-78
2023/01/21 02:51:04;;;;;;;135.40;31.17;;;;;;;-4.09;100.00;103035.75;5115236;28;20032;-77
2023/01/21 02:53:34;;;;;;;135.55;31.98;;;;;;;-3.97;100.00;103037.53;5115914;28;20028;-78
2023/01/21 02:56:15;;;;;;;140.07;30.73;;;;;;;-3.89;100.00;103032.38;5115347;28;20533;-78
2023/01/21 02:58:46;;;;;;;142.63;32.38;;;;;;;-3.85;100.00;103034.13;5114542;27;20026;-79
2023/01/21 03:01:11;;;;;;;177.32;35.20;;;;;;;-3.82;100.00;103038.47;5114663;28;20028;-79
2023/01/21 03:03:57;;;;;;;152.32;32.15;;;;;;;-3.80;100.00;103034.16;5115037;28;20032;-80
2023/01/21 03:06:34;;;;;;;165.90;34.50;;;;;;;-3.70;100.00;103035.06;5072518;28;20043;-79
2023/01/21 03:09:21;;;;;;;152.18;33.50;;;;;;;-3.63;100.00;103036.81;5112796;28;20544;-80
2023/01/21 03:12:22;;;;;;;162.40;32.50;;;;;;;-3.57;100.00;103036.84;5114279;28;20456;-80
2023/01/21 03:18:11;;;;;;;148.98;32.13;;;;;;;-3.44;100.00;103043.84;5114117;28;20418;-79
2023/01/21 03:20:42;;;;;;;149.18;32.33;;;;;;;-3.44;100.00;103043.84;5114741;27;20042;-79
2023/01/21 03:23:13;;;;;;;152.93;32.73;;;;;;;-3.41;100.00;103042.97;5113974;28;20107;-80
2023/01/21 03:25:40;;;;;;;168.82;33.92;;;;;;;-3.39;100.00;103049.94;5114488;28;20356;-80
2023/01/21 03:28:12;;;;;;;166.05;32.75;;;;;;;-3.32;100.00;103052.56;5114342;27;20031;-79
2023/01/21 03:30:44;;;;;;;170.38;34.88;;;;;;;-3.32;100.00;103053.41;5113772;28;20051;-79
2023/01/21 03:33:11;;;;;;;158.48;31.95;;;;;;;-3.33;100.00;103059.47;5114653;28;20020;-79
2023/01/21 03:35:41;;;;;;;159.35;33.35;;;;;;;-3.38;100.00;103062.06;5113904;28;20027;-80
2023/01/21 03:38:17;;;;;;;165.75;33.40;;;;;;;-3.46;100.00;103060.31;5113540;28;20073;-80
2023/01/21 03:40:50;;;;;;;136.73;31.67;;;;;;;-3.54;100.00;103060.28;5114293;28;20031;-79
2023/01/21 03:43:15;;;;;;;126.57;30.30;;;;;;;-3.64;100.00;103069.78;5113986;28;20455;-80
2023/01/21 03:45:49;;;;;;;123.05;29.63;;;;;;;-3.74;100.00;103062.81;5112403;28;20043;-79
2023/01/21 03:48:49;;;;;;;115.00;29.48;;;;;;;-3.85;100.00;103059.25;5112710;28;20028;-80
2023/01/21 03:51:20;;;;;;;117.68;28.40;;;;;;;-3.94;100.00;103063.56;5113875;28;20490;-80
2023/01/21 03:53:51;;;;;;;130.80;30.23;;;;;;;-3.96;100.00;103061.81;5113678;28;20028;-80
2023/01/21 03:56:17;;;;;;;145.98;30.90;;;;;;;-3.99;100.00;103064.41;5112545;28;20433;-79
2023/01/21 03:58:42;;;;;;;147.20;31.95;;;;;;;-4.01;100.00;103066.13;5113663;28;20039;-80
2023/01/21 04:01:07;;;;;;;127.30;29.17;;;;;;;-4.07;100.00;103069.56;5112972;28;20031;-80
2023/01/21 04:03:32;;;;;;;124.82;30.30;;;;;;;-4.13;100.00;103065.19;5113754;28;20038;-80
2023/01/21 04:05:58;;;;;;;150.15;33.90;;;;;;;-4.14;100.00;103062.56;5113557;28;20031;-80
2023/01/21 04:08:23;;;;;;;144.23;33.90;;;;;;;-4.17;100.00;103066.00;5113717;28;20024;-80
2023/01/21 04:10:48;;;;;;;154.25;32.60;;;;;;;-4.19;100.00;103072.94;5113246;28;20032;-80
2023/01/21 04:13:14;;;;;;;132.77;32.00;;;;;;;-4.23;100.00;103075.53;5112273;28;20113;-79
2023/01/21 04:15:39;;;;;;;117.88;29.98;;;;;;;-4.30;100.00;103070.28;5112137;28;20038;-79
2023/01/21 04:18:04;;;;;;;146.07;31.90;;;;;;;-4.34;100.00;103071.09;5113033;28;20379;-79
2023/01/21 04:20:30;;;;;;;136.73;29.33;;;;;;;-4.35;100.00;103078.91;5113549;28;20410;-79
2023/01/21 04:22:55;;;;;;;140.57;31.05;;;;;;;-4.40;100.00;103080.56;5113023;28;20112;-79
2023/01/21 04:25:20;;;;;;;113.80;28.77;;;;;;;-4.45;100.00;103081.44;5113381;28;20456;-78
2023/01/21 04:27:46;;;;;;;122.78;30.05;;;;;;;-4.50;100.00;103083.09;5113332;28;20035;-79
2023/01/21 04:30:11;;;;;;;147.63;31.50;;;;;;;-4.53;100.00;103088.28;5112366;28;20058;-79
2023/01/21 04:32:37;;;;;;;154.52;33.28;;;;;;;-4.52;100.00;103089.13;5113294;28;20067;-79
2023/01/21 04:35:02;;;;;;;122.18;29.30;;;;;;;-4.58;100.00;103084.78;5112623;28;20031;-79
2023/01/21 04:37:28;;;;;;;126.88;30.30;;;;;;;-4.63;100.00;103086.44;5113106;28;20028;-79
2023/01/21 04:39:53;;;;;;;117.80;29.08;;;;;;;-4.69;100.00;103092.47;5112815;28;20035;-80
2023/01/21 04:42:18;;;;;;;100.25;26.27;;;;;;;-4.76;100.00;103090.69;5113167;28;20024;-79
2023/01/21 04:44:44;;;;;;;113.93;26.90;;;;;;;-4.85;100.00;103088.88;5111480;28;20034;-80
2023/01/21 04:47:09;;;;;;;98.18;25.45;;;;;;;-4.93;100.00;103089.63;5112791;28;20499;-80
2023/01/21 04:49:35;;;;;;;97.40;26.95;;;;;;;-5.00;100.00;103097.38;5112917;28;20072;-80
2023/01/21 04:52:00;;;;;;;87.50;24.83;;;;;;;-5.06;100.00;103105.09;5112576;28;20050;-79
2023/01/21 04:54:25;;;;;;;86.38;25.25;;;;;;;-5.11;100.00;103106.75;5112997;28;20112;-80
2023/01/21 04:56:51;;;;;;;85.85;25.85;;;;;;;-5.16;100.00;103113.63;5113114;28;20031;-79
2023/01/21 04:59:16;;;;;;;89.75;25.45;;;;;;;-5.21;100.00;103111.00;5112631;28;20032;-78
2023/01/21 05:01:41;;;;;;;83.88;24.63;;;;;;;-5.24;100.00;103116.16;5111464;28;20479;-78
2023/01/21 05:04:07;;;;;;;83.57;25.13;;;;;;;-5.29;100.00;103110.00;5112433;28;20028;-79
2023/01/21 05:06:32;;;;;;;68.95;24.15;;;;;;;-5.33;100.00;103111.72;5113003;28;20470;-78
2023/01/21 05:08:57;;;;;;;66.53;23.10;;;;;;;-5.38;100.00;103113.34;5112385;28;20032;-79
2023/01/21 05:11:23;;;;;;;79.70;24.63;;;;;;;-5.41;100.00;103117.66;5112763;28;20042;-78
2023/01/21 05:13:48;;;;;;;77.30;24.23;;;;;;;-5.44;100.00;103115.88;5116884;28;20036;-79
2023/01/21 05:16:14;;;;;;;75.93;23.60;;;;;;;-5.45;100.00;103128.84;5116312;27;20485;-79
2023/01/21 05:18:44;;;;;;;77.93;24.98;;;;;;;-5.47;100.00;103128.81;5116780;28;20420;-79
2023/01/21 05:21:09;;;;;;;65.90;23.70;;;;;;;-5.45;100.00;103136.63;5116482;28;20032;-79
2023/01/21 05:23:34;;;;;;;74.18;24.55;;;;;;;-5.44;100.00;103135.78;5115099;28;20118;-79
2023/01/21 05:26:00;;;;;;;71.30;23.48;;;;;;;-5.43;100.00;103134.91;5116107;28;20066;-80
2023/01/21 05:28:25;;;;;;;69.82;24.10;;;;;;;-5.45;100.00;103139.22;5116345;28;20114;-79
2023/01/21 05:30:50;;;;;;;64.32;22.15;;;;;;;-5.46;100.00;103135.75;5116155;28;20074;-79
2023/01/21 05:33:16;;;;;;;59.28;22.02;;;;;;;-5.47;100.00;103151.31;5116179;27;20122;-79
2023/01/21 05:35:41;;;;;;;62.08;22.85;;;;;;;-5.52;100.00;103149.53;5116292;27;20035;-79
2023/01/21 05:38:06;;;;;;;56.95;21.65;;;;;;;-5.55;100.00;103146.88;5115553;28;20077;-80
2023/01/21 05:40:32;;;;;;;68.55;21.83;;;;;;;-5.59;100.00;103149.41;5115765;28;20043;-80
2023/01/21 05:42:57;;;;;;;70.65;24.67;;;;;;;-5.61;100.00;103149.41;5116158;28;20476;-79
2023/01/21 05:45:23;;;;;;;66.10;23.20;;;;;;;-5.62;100.00;103149.38;5115592;28;20057;-79
2023/01/21 05:47:48;;;;;;;61.50;23.27;;;;;;;-5.65;100.00;103152.78;5116112;28;20084;-80
2023/01/21 05:50:14;;;;;;;65.03;23.30;;;;;;;-5.67;100.00;103155.38;5115693;28;20030;-79
2023/01/21 05:52:39;;;;;;;62.38;21.80;;;;;;;-5.69;100.00;103159.66;5115897;28;20031;-79
2023/01/21 05:55:05;;;;;;;69.90;23.65;;;;;;;-5.70;100.00;103163.09;5115300;28;20046;-80
2023/01/21 05:57:31;;;;;;;63.22;21.02;;;;;;;-5.72;100.00;103161.34;5114143;28;20033;-79
2023/01/21 05:59:57;;;;;;;54.90;21.75;;;;;;;-5.76;100.00;103170.81;5115865;28;20121;-79
2023/01/21 06:02:22;;;;;;;50.08;20.23;;;;;;;-5.78;100.00;103172.47;5115245;28;20490;-80
2023/01/21 06:04:47;;;;;;;60.25;22.30;;;;;;;-5.81;100.00;103180.22;5115657;28;20114;-80
2023/01/21 06:07:13;;;;;;;54.58;21.85;;;;;;;-5.79;100.00;103181.13;5115026;28;20036;-79
2023/01/21 06:09:38;;;;;;;54.30;22.42;;;;;;;-5.80;100.00;103179.38;5114317;28;20437;-79
2023/01/21 06:12:04;;;;;;;50.55;20.88;;;;;;;-5.77;100.00;103187.19;5115009;28;20024;-80
2023/01/21 06:14:29;;;;;;;48.05;20.13;;;;;;;-5.76;100.00;103196.75;5115627;28;20182;-79
2023/01/21 06:16:55;;;;;;;50.63;21.00;;;;;;;-5.75;100.00;103200.19;5115580;28;20032;-79
2023/01/21 06:19:20;;;;;;;46.83;19.70;;;;;;;-5.78;100.00;103203.59;5115055;28;20145;-78
2023/01/21 06:21:45;;;;;;;46.33;19.55;;;;;;;-5.80;100.00;103201.84;5115414;28;20468;-79
2023/01/21 06:24:11;;;;;;;49.03;19.83;;;;;;;-5.82;100.00;103204.44;5114635;28;20032;-79
2023/01/21 06:26:36;;;;;;;54.13;19.80;;;;;;;-5.83;100.00;103205.25;5115055;28;20028;-79
2023/01/21 06:29:01;;;;;;;49.00;19.58;;;;;;;-5.87;100.00;103206.94;5115049;28;20432;-79
2023/01/21 06:31:27;;;;;;;45.75;19.20;;;;;;;-5.91;100.00;103209.44;5114837;28;20455;-79
2023/01/21 06:33:52;;;;;;;51.50;20.75;;;;;;;-5.89;100.00;103212.94;5115045;28;20523;-79
2023/01/21 06:36:18;;;;;;;52.83;21.38;;;;;;;-5.89;100.00;103220.72;5114470;28;20039;-79
2023/01/21 06:38:43;;;;;;;50.50;20.50;;;;;;;-5.91;100.00;103220.72;5115128;28;20031;-79
2023/01/21 06:41:08;;;;;;;42.00;18.00;;;;;;;-5.93;100.00;103226.69;5114320;28;20089;-80
2023/01/21 06:43:34;;;;;;;45.20;19.48;;;;;;;-5.94;100.00;103231.03;5114747;28;20028;-79
2023/01/21 06:45:59;;;;;;;44.03;17.65;;;;;;;-5.96;100.00;103226.66;5114778;28;20035;-79
2023/01/21 06:48:24;;;;;;;44.67;19.08;;;;;;;-5.99;100.00;103232.69;5114030;28;20055;-78
2023/01/21 06:50:50;;;;;;;39.92;18.25;;;;;;;-6.03;100.00;103236.97;5114902;28;20027;-79
2023/01/21 06:53:15;;;;;;;47.75;20.13;;;;;;;-6.04;100.00;103236.94;5114440;28;20498;-79
2023/01/21 06:55:41;;;;;;;42.03;18.52;;;;;;;-6.00;100.00;103241.34;5114716;28;20035;-79
2023/01/21 06:58:06;;;;;;;47.85;20.65;;;;;;;-5.90;100.00;103244.91;5114660;28;20111;-78
2023/01/21 07:00:31;;;;;;;49.13;19.27;;;;;;;-5.89;100.00;103238.88;5114152;28;20032;-79
2023/01/21 07:02:57;;;;;;;42.17;18.90;;;;;;;-5.90;100.00;103238.00;5114989;28;20097;-79
2023/01/21 07:05:23;;;;;;;50.60;19.65;;;;;;;-5.89;100.00;103244.06;5114265;28;20122;-78
2023/01/21 07:07:52;;;;;;;47.80;19.85;;;;;;;-5.91;100.00;103254.41;5114423;28;20458;-79
2023/01/21 07:10:17;;;;;;;52.00;20.02;;;;;;;-5.92;100.00;103259.56;5113746;28;20076;-78
2023/01/21 07:12:42;;;;;;;47.00;19.58;;;;;;;-5.95;100.00;103259.53;5114722;27;20032;-78
2023/01/21 07:15:08;;;;;;;45.45;18.42;;;;;;;-5.99;100.00;103255.16;5114059;28;20028;-78
2023/01/21 07:17:34;;;;;;;46.20;20.33;;;;;;;-6.03;100.00;103256.81;5114020;28;20043;-78
2023/01/21 07:19:59;;;;;;;45.30;19.23;;;;;;;-6.04;100.00;103255.09;5114704;28;20124;-78
2023/01/21 07:22:24;;;;;;;50.83;19.80;;;;;;;-6.05;100.00;103267.16;5096171;28;20043;-78
2023/01/21 07:24:50;;;;;;;48.33;20.33;;;;;;;-6.06;100.00;103270.63;5114504;27;20492;-78
2023/01/21 07:27:15;;;;;;;48.83;19.75;;;;;;;-6.05;100.00;103269.75;5114011;28;20032;-79
2023/01/21 07:29:40;;;;;;;44.80;19.92;;;;;;;-5.99;100.00;103274.16;5114154;28;20515;-79
2023/01/21 07:32:06;;;;;;;46.08;19.33;;;;;;;-5.92;100.00;103285.50;5112424;28;20055;-77
2023/01/21 07:34:31;;;;;;;47.20;19.80;;;;;;;-5.91;100.00;103282.94;5113847;28;20130;-78
2023/01/21 07:36:57;;;;;;;55.47;21.10;;;;;;;-5.90;100.00;103279.47;5114833;28;20423;-80
2023/01/21 07:39:22;;;;;;;51.97;21.35;;;;;;;-5.87;100.00;103276.97;5116357;28;20188;-78
2023/01/21 07:41:47;;;;;;;51.22;21.35;;;;;;;-5.83;100.00;103285.66;5117826;28;20486;-79
2023/01/21 07:44:13;;;;;;;48.58;19.05;;;;;;;-5.78;100.00;103286.59;5119322;28;20472;-78
2023/01/21 07:46:38;;;;;;;48.95;21.38;;;;;;;-5.72;100.00;103286.72;5119693;28;20114;-79
2023/01/21 07:49:04;;;;;;;55.35;22.15;;;;;;;-5.67;100.00;103290.25;5120617;28;20386;-78
2023/01/21 07:51:29;;;;;;;51.25;21.35;;;;;;;-5.64;100.00;103299.81;5119156;28;20031;-79
2023/01/21 07:53:55;;;;;;;57.67;23.20;;;;;;;-5.64;100.00;103306.69;5119348;28;20463;-78
2023/01/21 07:56:21;;;;;;;51.08;24.10;;;;;;;-5.68;100.00;103311.84;5114754;28;20039;-79
2023/01/21 07:58:46;;;;;;;55.75;22.85;;;;;;;-5.68;100.00;103319.63;5112804;28;20039;-79
2023/01/21 08:01:12;;;;;;;52.08;21.60;;;;;;;-5.68;100.00;103327.41;5112485;28;20032;-78
2023/01/21 08:03:38;;;;;;;52.55;21.55;;;;;;;-5.65;100.00;103330.91;5113331;28;20119;-78
2023/01/21 08:06:05;;;;;;;48.67;20.83;;;;;;;-5.65;100.00;103339.56;5113766;28;20109;-78
2023/01/21 08:08:30;;;;;;;50.30;20.38;;;;;;;-5.62;100.00;103329.25;5111742;28;20035;-78
2023/01/21 08:10:56;;;;;;;56.08;23.25;;;;;;;-5.53;100.00;103331.13;5112297;28;20042;-77
2023/01/21 08:13:21;;;;;;;53.00;21.58;;;;;;;-5.46;100.00;103332.06;5113080;28;20460;-78
2023/01/21 08:15:55;;;;;;;49.03;20.98;;;;;;;-5.44;100.00;103341.63;5111834;28;20093;-78
2023/01/21 08:18:21;;;;;;;49.45;20.98;;;;;;;-5.42;100.00;103350.34;5113265;28;20062;-79
2023/01/21 08:20:48;;;;;;;52.92;21.77;;;;;;;-5.39;100.00;103349.50;5113371;28;20035;-78
2023/01/21 08:23:13;;;;;;;55.03;21.33;;;;;;;-5.37;100.00;103340.03;5113073;28;20071;-78
2023/01/21 08:25:39;;;;;;;50.70;22.85;;;;;;;-5.29;100.00;103356.59;5112893;28;20518;-78
2023/01/21 08:28:05;;;;;;;63.45;23.45;;;;;;;-5.26;100.00;103354.03;5112130;28;20494;-80
2023/01/21 08:30:30;;;;;;;55.20;21.90;;;;;;;-5.22;100.00;103353.25;5112653;28;20506;-78
2023/01/21 08:32:56;;;;;;;54.53;22.98;;;;;;;-5.15;100.00;103351.59;5111762;28;20028;-79
2023/01/21 08:35:21;;;;;;;61.85;25.10;;;;;;;-5.01;100.00;103351.84;5112838;28;20472;-82
2023/01/21 08:37:47;;;;;;;66.03;25.38;;;;;;;-4.87;100.00;103365.00;5113087;28;20151;-78
2023/01/21 08:40:12;;;;;;;64.25;24.67;;;;;;;-4.73;100.00;103366.09;5113149;28;20467;-76
2023/01/21 08:42:38;;;;;;;80.32;28.48;;;;;;;-4.63;100.00;103380.06;5111256;28;20080;-79
2023/01/21 08:45:04;;;;;;;69.00;26.35;;;;;;;-4.55;100.00;103367.16;5112922;28;20034;-81
2023/01/21 08:47:30;;;;;;;74.50;27.92;;;;;;;-4.45;100.00;103367.31;5116071;28;20387;-79
2023/01/21 08:49:55;;;;;;;82.25;28.38;;;;;;;-4.35;100.00;103383.03;5116115;28;20027;-77
2023/01/21 08:52:21;;;;;;;83.20;29.33;;;;;;;-4.25;100.00;103375.34;5117491;28;20511;-78
2023/01/21 08:54:46;;;;;;;75.60;26.40;;;;;;;-4.14;100.00;103374.63;5116892;28;20035;-78
2023/01/21 08:57:12;;;;;;;72.68;26.65;;;;;;;-4.04;100.00;103376.47;5116848;28;20039;-77
2023/01/21 08:59:38;;;;;;;84.35;28.25;;;;;;;-3.85;100.00;103366.25;5116959;28;20098;-77
2023/01/21 09:02:03;;;;;;;86.93;30.25;;;;;;;-3.72;100.00;103362.91;5116963;28;20082;-81
2023/01/21 09:04:28;;;;;;;88.22;29.48;;;;;;;-3.60;100.00;103376.06;5116819;28;20111;-80
2023/01/21 09:06:54;;;;;;;107.97;37.78;;;;;;;-3.52;100.00;103375.22;5117145;28;20176;-82
2023/01/21 09:09:19;;;;;;;94.18;34.95;;;;;;;-3.46;100.00;103381.38;5116959;28;20360;-82
2023/01/21 09:11:45;;;;;;;82.07;29.13;;;;;;;-3.42;100.00;103383.16;5114915;28;20704;-78
2023/01/21 09:14:10;;;;;;;81.97;29.95;;;;;;;-3.35;100.00;103376.25;5116759;28;20080;-77
2023/01/21 09:16:36;;;;;;;85.22;30.67;;;;;;;-3.26;100.00;103378.06;5116125;27;20035;-77
2023/01/21 09:19:02;;;;;;;93.55;30.75;;;;;;;-3.17;100.00;103378.13;5116510;28;20028;-84
2023/01/21 09:21:28;;;;;;;92.70;29.45;;;;;;;-3.08;100.00;103385.16;5109937;27;20051;-81
2023/01/21 09:23:54;;;;;;;93.90;30.98;;;;;;;-3.01;100.00;103390.41;5117116;27;20055;-78
2023/01/21 09:26:21;;;;;;;99.13;31.17;;;;;;;-2.92;100.00;103386.16;5096037;28;20495;-80
2023/01/21 09:28:58;;;;;;;91.18;30.98;;;;;;;-2.82;100.00;103390.56;5097005;28;20039;-81
2023/01/21 09:31:25;;;;;;;101.80;32.78;;;;;;;-2.77;100.00;103393.19;5096602;28;20059;-80
2023/01/21 09:33:53;;;;;;;99.88;32.40;;;;;;;-2.70;100.00;103400.19;5096004;28;20089;-78
2023/01/21 09:36:22;;;;;;;93.97;34.83;;;;;;;-2.62;100.00;103402.84;5095711;28;20024;-79
2023/01/21 09:38:49;;;;;;;90.22;31.50;;;;;;;-2.51;100.00;103406.34;5095441;28;20590;-77
2023/01/21 09:41:36;;;;;;;104.60;32.63;;;;;;;-2.39;100.00;103408.16;5094589;28;20036;-80
2023/01/21 09:44:13;;;;;;;96.63;31.25;;;;;;;-2.33;100.00;103405.56;5095929;28;20028;-80
2023/01/21 09:46:50;;;;;;;85.35;30.23;;;;;;;-2.27;100.00;103410.81;5096597;28;20464;-80
2023/01/21 09:49:23;;;;;;;93.30;30.42;;;;;;;-2.23;100.00;103412.56;5095511;28;20027;-80
2023/01/21 09:52:14;;;;;;;98.20;29.50;;;;;;;-2.17;100.00;103435.22;5094961;28;20055;-81
2023/01/21 09:54:39;;;;;;;97.43;31.07;;;;;;;-2.13;100.00;103429.16;5095718;28;20034;-78
2023/01/21 09:57:09;;;;;;;91.40;29.35;;;;;;;-2.10;100.00;103429.16;5094585;28;20269;-78
2023/01/21 09:59:43;;;;;;;103.88;31.88;;;;;;;-2.06;100.00;103443.09;5093930;28;20480;-83
2023/01/21 10:02:26;;;;;;;96.13;31.25;;;;;;;-2.04;100.00;103444.84;5095869;28;20043;-83
2023/01/21 10:05:21;;;;;;;92.40;29.33;;;;;;;-1.97;100.00;103444.00;5113747;28;20051;-83
2023/01/21 10:08:01;;;;;;;110.93;31.90;;;;;;;-1.84;100.00;103446.66;5098663;28;20028;-83
2023/01/21 10:10:45;;;;;;;94.60;29.53;;;;;;;-1.74;100.00;103452.78;5096545;28;20487;-81
2023/01/21 10:13:24;;;;;;;100.88;30.90;;;;;;;-1.66;100.00;103451.91;5095522;28;20020;-85
2023/01/21 10:16:01;;;;;;;90.88;30.77;;;;;;;-1.61;100.00;103458.03;5096372;28;20032;-83
2023/01/21 10:18:30;;;;;;;91.40;31.42;;;;;;;-1.47;100.00;103458.06;5097430;28;20536;-84
2023/01/21 10:21:32;;;;;;;88.68;30.23;;;;;;;-1.20;100.00;103451.13;5095181;28;20086;-83
2023/01/21 10:24:34;;;;;;;80.15;30.23;;;;;;;-1.15;100.00;103457.25;5096464;28;20020;-80
2023/01/21 10:26:59;;;;;;;69.45;24.02;;;;;;;-1.33;100.00;103454.59;5052520;28;20032;-80
2023/01/21 10:29:26;;;;;;;63.20;23.88;;;;;;;-1.42;100.00;103448.50;5094533;28;20042;-80
2023/01/21 10:32:14;;;;;;;94.28;23.80;;;;;;;-1.45;100.00;103455.44;5093596;28;20241;-82
2023/01/21 10:34:49;;;;;;;160.10;23.85;;;;;;;-1.46;100.00;103462.41;5094294;28;20031;-82
2023/01/21 10:37:24;;;;;;;59.63;22.55;;;;;;;-1.40;100.00;103466.78;5111098;28;20110;-78
2023/01/21 10:40:08;;;;;;;93.80;22.60;;;;;;;-1.43;100.00;103477.22;5096092;28;20524;-79
2023/01/21 10:42:42;;;;;;;77.70;22.50;;;;;;;-1.45;100.00;103477.22;5094815;28;20099;-79
2023/01/21 10:45:25;;;;;;;56.30;21.75;;;;;;;-1.48;100.00;103485.06;5094754;28;20088;-78
2023/01/21 10:47:59;;;;;;;60.33;23.80;;;;;;;-1.48;100.00;103481.56;5093878;28;20024;-78
2023/01/21 10:50:43;;;;;;;63.45;23.65;;;;;;;-1.34;100.00;103479.00;5094040;28;20024;-78
2023/01/21 10:53:21;;;;;;;56.38;24.20;;;;;;;-1.14;100.00;103487.69;5094001;28;20020;-76
2023/01/21 10:56:17;;;;;;;58.92;24.33;;;;;;;-1.09;100.00;103479.88;5093681;28;20111;-77
2023/01/21 10:58:51;;;;;;;52.53;23.50;;;;;;;-1.12;100.00;103475.53;5092692;28;20453;-78
2023/01/21 11:01:26;;;;;;;56.53;24.13;;;;;;;-1.05;100.00;103478.16;5094074;28;20024;-78
2023/01/21 11:03:55;;;;;;;54.95;23.58;;;;;;;-0.93;100.00;103485.97;5094949;28;20046;-82
2023/01/21 11:06:22;;;;;;;54.15;23.55;;;;;;;-0.82;100.00;103480.75;5093581;28;20036;-79
2023/01/21 11:08:53;;;;;;;60.30;24.02;;;;;;;-0.82;100.00;103493.81;5092877;28;20435;-78
2023/01/21 11:11:25;;;;;;;53.88;23.23;;;;;;;-0.78;100.00;103490.34;5108682;28;20031;-79